createdAt,value
2019-04-04T00:00:52.288Z,0.00
2019-04-04T00:01:52.379Z,0.00
2019-04-04T00:02:52.282Z,0.00
2019-04-04T00:03:52.298Z,0.00
2019-04-04T00:04:52.671Z,0.00
2019-04-04T00:05:52.308Z,0.00
2019-04-04T00:06:52.230Z,0.00
2019-04-04T00:07:52.323Z,0.00
2019-04-04T00:08:52.202Z,0.00
2019-04-04T00:09:52.264Z,0.00
2019-04-04T00:10:52.181Z,0.00
2019-04-04T00:11:52.258Z,0.00
2019-04-04T00:12:52.158Z,0.00
2019-04-04T00:13:52.264Z,0.00
2019-04-04T00:14:52.168Z,0.00
2019-04-04T00:15:52.186Z,0.00
2019-04-04T00:16:52.134Z,0.00
2019-04-04T00:17:53.858Z,0.00
2019-04-04T00:18:52.092Z,0.00
2019-04-04T00:19:52.231Z,0.00
2019-04-04T00:20:52.076Z,0.00
2019-04-04T00:21:52.125Z,0.00
2019-04-04T00:22:52.055Z,0.00
2019-04-04T00:23:52.136Z,0.00
2019-04-04T00:24:52.064Z,0.00
2019-04-04T00:25:52.152Z,0.00
2019-04-04T00:26:52.014Z,0.00
2019-04-04T00:27:52.061Z,0.00
2019-04-04T00:28:51.995Z,0.00
2019-04-04T00:29:52.119Z,0.00
2019-04-04T00:30:51.984Z,0.00
2019-04-04T00:31:51.980Z,0.00
2019-04-04T00:32:52.808Z,0.00
2019-04-04T00:33:52.018Z,0.00
2019-04-04T00:34:51.955Z,0.00
2019-04-04T00:35:52.008Z,0.00
2019-04-04T00:36:51.912Z,0.00
2019-04-04T00:37:51.986Z,0.00
2019-04-04T00:38:51.877Z,0.00
2019-04-04T00:39:51.955Z,0.00
2019-04-04T00:40:51.936Z,0.00
2019-04-04T00:41:51.977Z,0.00
2019-04-04T00:42:51.862Z,0.00
2019-04-04T00:43:52.414Z,0.00
2019-04-04T00:44:51.814Z,0.00
2019-04-04T00:45:51.917Z,0.00
2019-04-04T00:46:51.788Z,0.00
2019-04-04T00:47:51.904Z,0.00
2019-04-04T00:48:51.790Z,0.00
2019-04-04T00:49:51.793Z,0.00
2019-04-04T00:50:51.790Z,0.00
2019-04-04T00:51:51.809Z,0.00
2019-04-04T00:52:51.750Z,0.00
2019-04-04T00:53:51.843Z,0.00
2019-04-04T00:54:51.721Z,0.00
2019-04-04T00:55:51.772Z,0.00
2019-04-04T00:56:51.693Z,0.00
2019-04-04T00:57:51.752Z,0.00
2019-04-04T00:58:52.477Z,0.00
2019-04-04T00:59:53.303Z,0.00
2019-04-04T01:00:52.963Z,0.00
2019-04-04T01:01:51.682Z,0.00
2019-04-04T01:02:51.625Z,0.00
2019-04-04T01:03:51.707Z,0.00
2019-04-04T01:04:51.604Z,0.00
2019-04-04T01:05:51.734Z,0.00
2019-04-04T01:06:51.588Z,0.00
2019-04-04T01:07:51.619Z,0.00
2019-04-04T01:08:51.567Z,0.00
2019-04-04T01:09:51.633Z,0.00
2019-04-04T01:10:51.586Z,0.00
2019-04-04T01:11:51.829Z,0.00
2019-04-04T01:12:52.243Z,0.00
2019-04-04T01:13:51.572Z,0.00
2019-04-04T01:14:51.487Z,0.00
2019-04-04T01:15:51.598Z,0.00
2019-04-04T01:16:51.500Z,0.00
2019-04-04T01:17:51.606Z,0.00
2019-04-04T01:18:51.478Z,0.00
2019-04-04T01:19:51.495Z,0.00
2019-04-04T01:20:51.463Z,0.00
2019-04-04T01:21:53.437Z,0.00
2019-04-04T01:22:51.414Z,0.00
2019-04-04T01:23:51.422Z,0.00
2019-04-04T01:24:51.385Z,0.00
2019-04-04T01:25:51.434Z,0.00
2019-04-04T01:26:51.750Z,0.00
2019-04-04T01:27:51.455Z,0.00
2019-04-04T01:28:51.340Z,0.00
2019-04-04T01:29:51.369Z,0.00
2019-04-04T01:30:51.343Z,0.00
2019-04-04T01:31:51.458Z,0.00
2019-04-04T01:32:51.317Z,0.00
2019-04-04T01:33:51.799Z,0.00
2019-04-04T01:34:52.148Z,0.00
2019-04-04T01:36:52.329Z,0.00
2019-04-04T01:37:51.316Z,0.00
2019-04-04T01:38:51.241Z,0.00
2019-04-04T01:39:51.322Z,0.00
2019-04-04T01:40:51.220Z,0.00
2019-04-04T01:41:51.277Z,0.00
2019-04-04T01:42:51.184Z,0.00
2019-04-04T01:43:51.250Z,0.00
2019-04-04T01:44:51.167Z,0.00
2019-04-04T01:45:51.267Z,0.00
2019-04-04T01:46:51.204Z,0.00
2019-04-04T01:47:51.180Z,0.00
2019-04-04T01:48:51.120Z,0.00
2019-04-04T01:49:51.917Z,0.00
2019-04-04T01:50:53.448Z,0.00
2019-04-04T01:51:51.244Z,0.00
2019-04-04T01:52:51.091Z,0.00
2019-04-04T01:53:51.111Z,0.00
2019-04-04T01:54:51.055Z,0.00
2019-04-04T01:55:51.125Z,0.00
2019-04-04T01:56:51.062Z,0.00
2019-04-04T01:57:51.144Z,0.00
2019-04-04T01:58:51.029Z,0.00
2019-04-04T01:59:51.052Z,0.00
2019-04-04T02:00:50.990Z,0.00
2019-04-04T02:01:51.105Z,0.00
2019-04-04T02:02:51.920Z,0.00
2019-04-04T02:03:51.840Z,0.00
2019-04-04T02:04:50.950Z,0.00
2019-04-04T02:05:51.000Z,0.00
2019-04-04T02:06:50.966Z,0.00
2019-04-04T02:07:51.007Z,0.00
2019-04-04T02:08:50.903Z,0.00
2019-04-04T02:09:50.919Z,0.00
2019-04-04T02:10:50.886Z,0.00
2019-04-04T02:11:50.968Z,0.00
2019-04-04T02:12:50.863Z,0.00
2019-04-04T02:13:50.965Z,0.00
2019-04-04T02:14:50.849Z,0.00
2019-04-04T02:15:50.863Z,0.00
2019-04-04T02:16:51.586Z,0.00
2019-04-04T02:17:52.681Z,0.00
2019-04-04T02:18:53.588Z,0.00
2019-04-04T02:19:50.900Z,0.00
2019-04-04T02:20:50.783Z,0.00
2019-04-04T02:21:50.807Z,0.00
2019-04-04T02:22:50.781Z,0.00
2019-04-04T02:23:50.819Z,0.00
2019-04-04T02:24:50.738Z,0.00
2019-04-04T02:25:50.831Z,0.00
2019-04-04T02:26:50.737Z,0.00
2019-04-04T02:27:50.763Z,0.00
2019-04-04T02:28:50.689Z,0.00
2019-04-04T02:29:50.756Z,0.00
2019-04-04T02:30:50.672Z,0.00
2019-04-04T02:31:52.962Z,0.00
2019-04-04T02:32:50.675Z,0.00
2019-04-04T02:33:50.710Z,0.00
2019-04-04T02:34:50.628Z,0.00
2019-04-04T02:35:50.698Z,0.00
2019-04-04T02:36:50.621Z,0.00
2019-04-04T02:37:54.969Z,0.00
2019-04-04T02:38:51.585Z,0.00
2019-04-04T02:39:50.654Z,0.00
2019-04-04T02:40:50.574Z,0.00
2019-04-04T02:41:50.634Z,0.00
2019-04-04T02:42:54.134Z,0.00
2019-04-04T02:43:50.682Z,0.00
2019-04-04T02:44:50.522Z,0.00
2019-04-04T02:45:52.616Z,0.00
2019-04-04T02:46:50.509Z,0.00
2019-04-04T02:48:53.570Z,0.00
2019-04-04T02:50:51.499Z,0.00
2019-04-04T02:51:52.552Z,0.00
2019-04-04T02:52:50.431Z,0.00
2019-04-04T02:53:52.944Z,0.00
2019-04-04T02:54:50.408Z,0.00
2019-04-04T02:56:50.386Z,0.00
2019-04-04T02:58:51.453Z,0.00
2019-04-04T03:01:41.512Z,0.00
2019-04-04T03:02:41.635Z,0.00
2019-04-04T03:03:42.280Z,0.00
2019-04-04T03:04:45.835Z,0.00
2019-04-04T03:05:42.502Z,0.00
2019-04-04T03:06:41.486Z,0.00
2019-04-04T03:07:41.409Z,0.00
2019-04-04T03:08:41.581Z,0.00
2019-04-04T03:09:43.341Z,0.00
2019-04-04T03:10:41.427Z,0.00
2019-04-04T03:11:41.349Z,0.00
2019-04-04T03:12:41.426Z,0.00
2019-04-04T03:13:41.365Z,0.00
2019-04-04T03:14:41.450Z,0.00
2019-04-04T03:15:44.544Z,0.00
2019-04-04T03:16:42.381Z,0.00
2019-04-04T03:17:41.290Z,0.00
2019-04-04T03:18:41.393Z,0.00
2019-04-04T03:19:43.629Z,0.00
2019-04-04T03:20:41.419Z,0.00
2019-04-04T03:21:41.246Z,0.00
2019-04-04T03:22:41.327Z,0.00
2019-04-04T03:23:41.263Z,0.00
2019-04-04T03:24:44.904Z,0.00
2019-04-04T03:25:41.205Z,0.00
2019-04-04T03:26:41.215Z,0.00
2019-04-04T03:27:41.209Z,0.00
2019-04-04T03:28:41.235Z,0.00
2019-04-04T03:29:41.184Z,0.00
2019-04-04T03:30:41.244Z,0.00
2019-04-04T03:31:41.248Z,0.00
2019-04-04T03:32:41.182Z,0.00
2019-04-04T03:33:41.121Z,0.00
2019-04-04T03:34:47.640Z,0.00
2019-04-04T03:35:42.120Z,0.00
2019-04-04T03:36:41.182Z,0.00
2019-04-04T03:37:41.879Z,0.00
2019-04-04T03:38:41.099Z,0.00
2019-04-04T03:39:41.085Z,0.00
2019-04-04T03:40:41.973Z,0.00
2019-04-04T03:41:41.032Z,0.00
2019-04-04T03:42:44.002Z,0.00
2019-04-04T03:43:41.020Z,0.00
2019-04-04T03:44:41.061Z,0.00
2019-04-04T03:45:40.992Z,0.00
2019-04-04T03:46:41.061Z,0.00
2019-04-04T03:47:44.485Z,0.00
2019-04-04T03:48:41.063Z,0.00
2019-04-04T03:49:40.980Z,0.00
2019-04-04T03:50:41.007Z,0.00
2019-04-04T03:51:40.934Z,0.00
2019-04-04T03:52:44.278Z,0.00
2019-04-04T03:53:40.892Z,0.00
2019-04-04T03:54:41.014Z,0.00
2019-04-04T03:55:40.908Z,0.00
2019-04-04T03:56:40.940Z,0.00
2019-04-04T03:57:40.850Z,0.00
2019-04-04T03:58:40.951Z,0.00
2019-04-04T03:59:40.832Z,0.00
2019-04-04T04:00:40.975Z,0.00
2019-04-04T04:01:45.403Z,0.00
2019-04-04T04:02:41.877Z,0.00
2019-04-04T04:03:40.796Z,0.00
2019-04-04T04:04:40.868Z,0.00
2019-04-04T04:05:41.069Z,0.00
2019-04-04T04:06:41.942Z,0.00
2019-04-04T04:07:40.754Z,0.00
2019-04-04T04:08:40.794Z,0.00
2019-04-04T04:09:40.718Z,0.00
2019-04-04T04:10:40.840Z,0.00
2019-04-04T04:11:40.707Z,0.00
2019-04-04T04:12:43.129Z,0.00
2019-04-04T04:13:40.679Z,0.00
2019-04-04T04:14:41.168Z,0.00
2019-04-04T04:15:40.696Z,0.00
2019-04-04T04:16:40.767Z,0.00
2019-04-04T04:17:45.008Z,0.00
2019-04-04T04:18:40.687Z,0.00
2019-04-04T04:19:40.615Z,0.00
2019-04-04T04:20:40.695Z,0.00
2019-04-04T04:21:42.864Z,0.00
2019-04-04T04:22:40.692Z,0.00
2019-04-04T04:23:40.599Z,0.00
2019-04-04T04:24:40.602Z,0.00
2019-04-04T04:25:40.584Z,0.00
2019-04-04T04:26:41.878Z,0.00
2019-04-04T04:27:40.536Z,0.00
2019-04-04T04:28:40.730Z,0.00
2019-04-04T04:29:40.512Z,0.00
2019-04-04T04:30:40.878Z,0.00
2019-04-04T04:31:40.512Z,0.00
2019-04-04T04:32:40.654Z,0.00
2019-04-04T04:33:40.466Z,0.00
2019-04-04T04:34:40.672Z,0.00
2019-04-04T04:35:42.013Z,4.00
2019-04-04T04:36:40.607Z,4.00
2019-04-04T04:37:40.434Z,0.00
2019-04-04T04:38:40.591Z,4.00
2019-04-04T04:39:41.377Z,4.00
2019-04-04T04:40:40.628Z,4.00
2019-04-04T04:41:40.416Z,8.00
2019-04-04T04:42:40.627Z,4.00
2019-04-04T04:43:40.357Z,4.00
2019-04-04T04:44:41.574Z,8.00
2019-04-04T04:45:43.884Z,12.00
2019-04-04T04:46:40.786Z,8.00
2019-04-04T04:47:40.315Z,12.00
2019-04-04T04:48:40.975Z,12.00
2019-04-04T04:49:40.317Z,16.00
2019-04-04T04:50:41.127Z,20.00
2019-04-04T04:51:43.222Z,20.00
2019-04-04T04:53:41.293Z,28.00
2019-04-04T04:55:41.272Z,32.00
2019-04-04T04:56:41.360Z,36.00
2019-04-04T04:57:40.232Z,40.00
2019-04-04T04:59:44.355Z,48.00
2019-04-04T05:01:41.396Z,56.00
2019-04-04T05:03:41.211Z,68.00
2019-04-04T05:05:41.193Z,80.00
2019-04-04T05:06:41.637Z,84.00
2019-04-04T05:07:40.134Z,88.00
2019-04-04T05:09:41.134Z,96.00
2019-04-04T05:11:41.161Z,108.00
2019-04-04T05:12:41.813Z,120.00
2019-04-04T05:13:40.048Z,132.00
2019-04-04T05:15:41.062Z,148.00
2019-04-04T05:17:42.096Z,156.00
2019-04-04T05:19:41.014Z,176.00
2019-04-04T05:21:41.042Z,192.00
2019-04-04T05:22:41.839Z,204.00
2019-04-04T05:23:39.954Z,208.00
2019-04-04T05:24:41.959Z,216.00
2019-04-04T05:25:51.718Z,220.00
2019-04-04T05:26:40.888Z,232.00
2019-04-04T05:27:42.058Z,244.00
2019-04-04T05:28:41.739Z,260.00
2019-04-04T05:29:42.931Z,280.00
2019-04-04T05:30:39.848Z,300.00
2019-04-04T05:31:42.290Z,328.00
2019-04-04T05:32:39.862Z,352.00
2019-04-04T05:33:42.336Z,364.00
2019-04-04T05:34:39.798Z,348.00
2019-04-04T05:35:42.425Z,340.00
2019-04-04T05:36:39.800Z,320.00
2019-04-04T05:37:42.438Z,308.00
2019-04-04T05:38:42.647Z,300.00
2019-04-04T05:39:42.454Z,308.00
2019-04-04T05:40:39.761Z,320.00
2019-04-04T05:41:42.572Z,332.00
2019-04-04T05:42:39.715Z,336.00
2019-04-04T05:43:42.624Z,340.00
2019-04-04T05:44:41.715Z,312.00
2019-04-04T05:46:40.749Z,272.00
2019-04-04T05:48:40.760Z,252.00
2019-04-04T05:50:43.312Z,260.00
2019-04-04T05:52:40.665Z,292.00
2019-04-04T05:53:42.895Z,332.00
2019-04-04T05:54:39.785Z,400.00
2019-04-04T05:56:40.645Z,428.00
2019-04-04T05:58:40.592Z,312.00
2019-04-04T05:59:43.175Z,276.00
2019-04-04T06:01:40.597Z,264.00
2019-04-04T06:02:41.098Z,268.00
2019-04-04T06:03:39.506Z,256.00
2019-04-04T06:04:39.511Z,244.00
2019-04-04T06:05:39.473Z,248.00
2019-04-04T06:06:39.485Z,256.00
2019-04-04T06:07:39.498Z,256.00
2019-04-04T06:08:43.093Z,244.00
2019-04-04T06:09:41.874Z,236.00
2019-04-04T06:10:39.415Z,240.00
2019-04-04T06:11:39.409Z,252.00
2019-04-04T06:12:39.409Z,256.00
2019-04-04T06:13:39.465Z,248.00
2019-04-04T06:14:39.501Z,228.00
2019-04-04T06:15:40.252Z,216.00
2019-04-04T06:16:39.364Z,216.00
2019-04-04T06:17:39.937Z,224.00
2019-04-04T06:18:42.705Z,236.00
2019-04-04T06:19:39.750Z,240.00
2019-04-04T06:20:39.337Z,244.00
2019-04-04T06:21:39.604Z,244.00
2019-04-04T06:22:40.163Z,240.00
2019-04-04T06:23:40.194Z,248.00
2019-04-04T06:24:39.778Z,272.00
2019-04-04T06:25:39.645Z,300.00
2019-04-04T06:27:40.948Z,332.00
2019-04-04T06:28:39.234Z,324.00
2019-04-04T06:29:39.210Z,324.00
2019-04-04T06:30:43.507Z,328.00
2019-04-04T06:31:39.203Z,340.00
2019-04-04T06:33:40.249Z,396.00
2019-04-04T06:34:39.210Z,440.00
2019-04-04T06:35:39.986Z,500.00
2019-04-04T06:36:39.195Z,576.00
2019-04-04T06:37:39.171Z,632.00
2019-04-04T06:38:39.172Z,620.00
2019-04-04T06:39:39.096Z,604.00
2019-04-04T06:40:39.120Z,556.00
2019-04-04T06:41:39.077Z,504.00
2019-04-04T06:42:39.069Z,480.00
2019-04-04T06:43:41.354Z,428.00
2019-04-04T06:44:39.046Z,392.00
2019-04-04T06:45:39.092Z,400.00
2019-04-04T06:46:39.018Z,404.00
2019-04-04T06:47:39.015Z,392.00
2019-04-04T06:48:38.997Z,372.00
2019-04-04T06:49:39.051Z,336.00
2019-04-04T06:50:42.756Z,304.00
2019-04-04T06:51:38.972Z,288.00
2019-04-04T06:52:38.963Z,284.00
2019-04-04T06:53:38.953Z,300.00
2019-04-04T06:54:38.945Z,308.00
2019-04-04T06:55:40.296Z,308.00
2019-04-04T06:56:38.940Z,316.00
2019-04-04T06:57:38.910Z,328.00
2019-04-04T06:58:40.195Z,348.00
2019-04-04T06:59:38.895Z,372.00
2019-04-04T07:00:41.764Z,392.00
2019-04-04T07:01:38.896Z,416.00
2019-04-04T07:02:38.852Z,440.00
2019-04-04T07:03:38.847Z,448.00
2019-04-04T07:04:38.843Z,448.00
2019-04-04T07:05:39.003Z,456.00
2019-04-04T07:06:41.754Z,480.00
2019-04-04T07:07:38.809Z,520.00
2019-04-04T07:08:38.782Z,564.00
2019-04-04T07:09:38.780Z,596.00
2019-04-04T07:10:38.764Z,624.00
2019-04-04T07:11:38.789Z,648.00
2019-04-04T07:12:38.834Z,700.00
2019-04-04T07:13:42.667Z,768.00
2019-04-04T07:14:45.728Z,832.00
2019-04-04T07:15:46.756Z,888.00
2019-04-04T07:16:39.776Z,916.00
2019-04-04T07:17:40.271Z,936.00
2019-04-04T07:18:38.677Z,968.00
2019-04-04T07:19:38.685Z,1000.00
2019-04-04T07:20:38.660Z,1028.00
2019-04-04T07:21:38.685Z,1044.00
2019-04-04T07:22:38.668Z,1044.00
2019-04-04T07:23:41.633Z,1052.00
2019-04-04T07:24:38.615Z,1032.00
2019-04-04T07:25:39.802Z,1000.00
2019-04-04T07:26:38.620Z,956.00
2019-04-04T07:27:38.623Z,912.00
2019-04-04T07:28:38.570Z,876.00
2019-04-04T07:29:38.560Z,848.00
2019-04-04T07:30:38.569Z,824.00
2019-04-04T07:31:38.632Z,808.00
2019-04-04T07:32:40.848Z,796.00
2019-04-04T07:33:38.544Z,792.00
2019-04-04T07:34:38.513Z,800.00
2019-04-04T07:35:38.502Z,820.00
2019-04-04T07:36:38.486Z,852.00
2019-04-04T07:37:38.508Z,880.00
2019-04-04T07:38:38.460Z,928.00
2019-04-04T07:39:38.460Z,988.00
2019-04-04T07:40:38.470Z,1052.00
2019-04-04T07:41:40.814Z,1088.00
2019-04-04T07:42:40.134Z,1112.00
2019-04-04T07:43:39.527Z,1132.00
2019-04-04T07:44:38.422Z,1168.00
2019-04-04T07:45:38.400Z,1196.00
2019-04-04T07:46:40.783Z,1216.00
2019-04-04T07:47:38.413Z,1232.00
2019-04-04T07:48:38.375Z,1240.00
2019-04-04T07:49:40.178Z,1228.00
2019-04-04T07:50:38.394Z,1196.00
2019-04-04T07:51:38.331Z,1128.00
2019-04-04T07:52:38.358Z,1040.00
2019-04-04T07:53:38.308Z,948.00
2019-04-04T07:54:39.097Z,876.00
2019-04-04T07:55:40.091Z,824.00
2019-04-04T07:56:38.267Z,792.00
2019-04-04T07:57:38.286Z,780.00
2019-04-04T07:58:38.286Z,776.00
2019-04-04T07:59:38.272Z,784.00
2019-04-04T08:00:38.250Z,788.00
2019-04-04T08:01:45.701Z,800.00
2019-04-04T08:02:39.293Z,804.00
2019-04-04T08:03:38.235Z,780.00
2019-04-04T08:04:38.183Z,752.00
2019-04-04T08:05:38.177Z,740.00
2019-04-04T08:06:38.170Z,740.00
2019-04-04T08:07:38.202Z,744.00
2019-04-04T08:08:38.173Z,744.00
2019-04-04T08:09:38.143Z,740.00
2019-04-04T08:10:38.120Z,732.00
2019-04-04T08:11:38.123Z,728.00
2019-04-04T08:12:38.104Z,744.00
2019-04-04T08:13:38.123Z,756.00
2019-04-04T08:14:38.107Z,768.00
2019-04-04T08:15:38.079Z,776.00
2019-04-04T08:16:38.062Z,784.00
2019-04-04T08:17:38.066Z,796.00
2019-04-04T08:18:38.128Z,816.00
2019-04-04T08:19:38.048Z,828.00
2019-04-04T08:20:38.012Z,844.00
2019-04-04T08:21:38.024Z,840.00
2019-04-04T08:22:39.725Z,836.00
2019-04-04T08:23:38.056Z,836.00
2019-04-04T08:24:37.982Z,856.00
2019-04-04T08:25:37.993Z,888.00
2019-04-04T08:26:37.954Z,928.00
2019-04-04T08:27:37.975Z,964.00
2019-04-04T08:28:37.957Z,980.00
2019-04-04T08:29:37.961Z,968.00
2019-04-04T08:30:37.916Z,952.00
2019-04-04T08:31:37.907Z,956.00
2019-04-04T08:32:37.900Z,988.00
2019-04-04T08:33:37.879Z,1044.00
2019-04-04T08:34:37.903Z,1108.00
2019-04-04T08:35:37.883Z,1180.00
2019-04-04T08:36:37.847Z,1272.00
2019-04-04T08:37:37.838Z,1332.00
2019-04-04T08:38:37.821Z,1352.00
2019-04-04T08:39:37.858Z,1392.00
2019-04-04T08:40:37.813Z,1452.00
2019-04-04T08:41:37.799Z,1468.00
2019-04-04T08:42:37.776Z,1404.00
2019-04-04T08:43:37.776Z,1308.00
2019-04-04T08:44:37.787Z,1244.00
2019-04-04T08:45:37.757Z,1232.00
2019-04-04T08:46:37.739Z,1296.00
2019-04-04T08:47:37.754Z,1448.00
2019-04-04T08:48:37.711Z,1612.00
2019-04-04T08:49:37.772Z,1712.00
2019-04-04T08:50:37.702Z,1776.00
2019-04-04T08:51:37.691Z,1788.00
2019-04-04T08:52:37.669Z,1768.00
2019-04-04T08:53:40.036Z,1716.00
2019-04-04T08:54:37.674Z,1640.00
2019-04-04T08:55:37.655Z,1608.00
2019-04-04T08:56:37.629Z,1620.00
2019-04-04T08:57:37.626Z,1632.00
2019-04-04T08:58:37.616Z,1608.00
2019-04-04T08:59:37.651Z,1564.00
2019-04-04T09:00:37.591Z,1576.00
2019-04-04T09:01:37.578Z,1692.00
2019-04-04T09:02:37.580Z,1920.00
2019-04-04T09:03:37.558Z,2172.00
2019-04-04T09:04:37.571Z,2280.00
2019-04-04T09:05:37.542Z,2208.00
2019-04-04T09:06:37.519Z,2072.00
2019-04-04T09:07:37.516Z,1900.00
2019-04-04T09:08:37.503Z,1728.00
2019-04-04T09:09:37.671Z,1672.00
2019-04-04T09:10:37.507Z,1776.00
2019-04-04T09:11:37.483Z,1908.00
2019-04-04T09:12:37.454Z,2012.00
2019-04-04T09:13:37.447Z,2144.00
2019-04-04T09:14:37.430Z,2316.00
2019-04-04T09:15:37.470Z,2440.00
2019-04-04T09:16:37.421Z,2408.00
2019-04-04T09:17:37.403Z,2280.00
2019-04-04T09:18:37.384Z,2164.00
2019-04-04T09:19:37.383Z,2128.00
2019-04-04T09:20:37.386Z,2196.00
2019-04-04T09:21:37.358Z,2264.00
2019-04-04T09:22:37.346Z,2276.00
2019-04-04T09:23:37.348Z,2164.00
2019-04-04T09:24:37.321Z,2028.00
2019-04-04T09:25:37.373Z,1956.00
2019-04-04T09:26:37.299Z,1972.00
2019-04-04T09:27:37.293Z,1988.00
2019-04-04T09:28:37.274Z,1952.00
2019-04-04T09:29:37.278Z,1928.00
2019-04-04T09:30:37.280Z,1932.00
2019-04-04T09:31:37.249Z,1996.00
2019-04-04T09:32:37.254Z,2084.00
2019-04-04T09:33:37.232Z,2124.00
2019-04-04T09:34:37.215Z,2176.00
2019-04-04T09:35:37.244Z,2320.00
2019-04-04T09:36:37.185Z,2484.00
2019-04-04T09:37:37.180Z,2608.00
2019-04-04T09:38:37.162Z,2776.00
2019-04-04T09:39:37.164Z,2968.00
2019-04-04T09:40:37.183Z,3040.00
2019-04-04T09:41:37.143Z,2876.00
2019-04-04T09:42:37.141Z,2776.00
2019-04-04T09:43:37.134Z,2700.00
2019-04-04T09:44:37.099Z,2520.00
2019-04-04T09:45:37.125Z,2340.00
2019-04-04T09:46:37.106Z,2296.00
2019-04-04T09:47:37.076Z,2364.00
2019-04-04T09:48:37.059Z,2532.00
2019-04-04T09:49:37.057Z,2840.00
2019-04-04T09:50:37.037Z,3128.00
2019-04-04T09:51:37.076Z,3192.00
2019-04-04T09:52:37.023Z,3116.00
2019-04-04T09:53:52.126Z,3092.00
2019-04-04T09:54:38.001Z,3148.00
2019-04-04T09:55:36.989Z,3140.00
2019-04-04T09:56:36.993Z,3136.00
2019-04-04T09:57:36.964Z,3416.00
2019-04-04T09:58:36.976Z,3420.00
2019-04-04T09:59:36.940Z,3220.00
2019-04-04T10:00:36.936Z,2796.00
2019-04-04T10:01:36.982Z,2352.00
2019-04-04T10:02:36.923Z,2144.00
2019-04-04T10:03:36.903Z,2236.00
2019-04-04T10:04:36.886Z,2420.00
2019-04-04T10:05:36.893Z,2484.00
2019-04-04T10:06:36.867Z,2500.00
2019-04-04T10:07:36.879Z,2444.00
2019-04-04T10:08:38.838Z,2284.00
2019-04-04T10:09:36.868Z,2104.00
2019-04-04T10:10:36.815Z,1928.00
2019-04-04T10:11:36.841Z,1732.00
2019-04-04T10:12:36.793Z,1628.00
2019-04-04T10:13:36.788Z,1704.00
2019-04-04T10:14:36.780Z,1808.00
2019-04-04T10:15:36.773Z,1892.00
2019-04-04T10:16:36.783Z,1948.00
2019-04-04T10:17:36.775Z,1908.00
2019-04-04T10:18:36.734Z,1796.00
2019-04-04T10:19:36.724Z,1700.00
2019-04-04T10:20:36.713Z,1652.00
2019-04-04T10:21:36.725Z,1624.00
2019-04-04T10:22:36.740Z,1552.00
2019-04-04T10:24:37.730Z,1448.00
2019-04-04T10:25:36.681Z,1424.00
2019-04-04T10:26:36.652Z,1428.00
2019-04-04T10:27:36.666Z,1456.00
2019-04-04T10:28:36.645Z,1480.00
2019-04-04T10:29:36.627Z,1496.00
2019-04-04T10:30:36.613Z,1484.00
2019-04-04T10:31:36.724Z,1460.00
2019-04-04T10:32:36.629Z,1464.00
2019-04-04T10:33:36.608Z,1408.00
2019-04-04T10:34:36.573Z,1384.00
2019-04-04T10:35:36.583Z,1436.00
2019-04-04T10:36:36.556Z,1584.00
2019-04-04T10:37:36.563Z,1816.00
2019-04-04T10:38:36.523Z,2076.00
2019-04-04T10:39:36.514Z,2316.00
2019-04-04T10:40:36.494Z,2540.00
2019-04-04T10:41:36.486Z,2732.00
2019-04-04T10:42:36.568Z,2804.00
2019-04-04T10:43:36.480Z,2740.00
2019-04-04T10:44:37.203Z,2668.00
2019-04-04T10:45:36.451Z,2720.00
2019-04-04T10:46:36.429Z,2788.00
2019-04-04T10:47:36.453Z,2660.00
2019-04-04T10:48:36.410Z,2608.00
2019-04-04T10:49:36.431Z,2640.00
2019-04-04T10:50:36.389Z,2700.00
2019-04-04T10:51:36.385Z,2804.00
2019-04-04T10:52:36.398Z,3024.00
2019-04-04T10:53:36.368Z,3156.00
2019-04-04T10:54:36.343Z,3212.00
2019-04-04T10:55:36.335Z,3296.00
2019-04-04T10:56:36.381Z,3272.00
2019-04-04T10:57:36.376Z,3144.00
2019-04-04T10:58:36.325Z,3024.00
2019-04-04T10:59:36.298Z,2988.00
2019-04-04T11:00:36.271Z,3060.00
2019-04-04T11:01:36.277Z,3208.00
2019-04-04T11:02:36.286Z,3332.00
2019-04-04T11:03:36.290Z,3324.00
2019-04-04T11:04:36.230Z,3240.00
2019-04-04T11:05:36.230Z,3172.00
2019-04-04T11:06:36.225Z,3164.00
2019-04-04T11:07:36.210Z,3260.00
2019-04-04T11:08:36.227Z,3456.00
2019-04-04T11:09:41.903Z,3868.00
2019-04-04T11:10:37.173Z,4328.00
2019-04-04T11:11:36.264Z,4708.00
2019-04-04T11:12:36.232Z,4816.00
2019-04-04T11:13:36.225Z,4392.00
2019-04-04T11:14:36.154Z,3828.00
2019-04-04T11:16:37.170Z,3260.00
2019-04-04T11:17:36.210Z,2728.00
2019-04-04T11:18:36.107Z,2392.00
2019-04-04T11:19:36.111Z,2108.00
2019-04-04T11:20:36.065Z,1960.00
2019-04-04T11:21:36.127Z,1856.00
2019-04-04T11:22:36.033Z,1832.00
2019-04-04T11:23:36.299Z,1784.00
2019-04-04T11:24:36.019Z,1748.00
2019-04-04T11:25:36.051Z,1680.00
2019-04-04T11:26:36.000Z,1504.00
2019-04-04T11:27:36.082Z,1396.00
2019-04-04T11:28:35.970Z,1420.00
2019-04-04T11:29:36.114Z,1508.00
2019-04-04T11:30:35.950Z,1556.00
2019-04-04T11:31:35.996Z,1680.00
2019-04-04T11:32:35.936Z,1864.00
2019-04-04T11:33:36.023Z,2212.00
2019-04-04T11:34:35.933Z,2372.00
2019-04-04T11:35:36.037Z,2640.00
2019-04-04T11:36:35.886Z,2700.00
2019-04-04T11:37:35.930Z,2780.00
2019-04-04T11:38:35.863Z,2800.00
2019-04-04T11:39:35.996Z,2652.00
2019-04-04T11:40:35.848Z,2344.00
2019-04-04T11:41:35.857Z,2136.00
2019-04-04T11:42:35.826Z,2088.00
2019-04-04T11:43:35.873Z,2024.00
2019-04-04T11:44:35.832Z,1844.00
2019-04-04T11:45:35.889Z,1728.00
2019-04-04T11:46:35.787Z,1688.00
2019-04-04T11:47:35.798Z,1500.00
2019-04-04T11:48:35.791Z,1460.00
2019-04-04T11:49:35.838Z,1376.00
2019-04-04T11:50:35.735Z,1444.00
2019-04-04T11:51:35.848Z,1768.00
2019-04-04T11:52:35.720Z,1736.00
2019-04-04T11:53:35.758Z,1768.00
2019-04-04T11:54:35.733Z,1792.00
2019-04-04T11:55:35.755Z,1780.00
2019-04-04T11:56:35.668Z,1792.00
2019-04-04T11:57:36.447Z,1852.00
2019-04-04T11:58:35.669Z,1876.00
2019-04-04T11:59:35.711Z,1840.00
2019-04-04T12:00:35.668Z,1832.00
2019-04-04T12:01:35.700Z,1860.00
2019-04-04T12:02:35.602Z,1768.00
2019-04-04T12:03:35.708Z,1740.00
2019-04-04T12:04:35.586Z,1764.00
2019-04-04T12:05:35.650Z,1836.00
2019-04-04T12:06:35.594Z,1936.00
2019-04-04T12:07:38.215Z,1968.00
2019-04-04T12:08:35.558Z,1868.00
2019-04-04T12:09:35.687Z,1784.00
2019-04-04T12:10:35.577Z,1780.00
2019-04-04T12:11:35.560Z,1812.00
2019-04-04T12:12:35.500Z,1852.00
2019-04-04T12:13:35.568Z,1912.00
2019-04-04T12:14:35.491Z,1920.00
2019-04-04T12:15:35.510Z,1816.00
2019-04-04T12:16:35.456Z,1704.00
2019-04-04T12:17:35.513Z,1664.00
2019-04-04T12:18:35.443Z,1720.00
2019-04-04T12:19:35.507Z,1792.00
2019-04-04T12:20:35.453Z,1744.00
2019-04-04T12:21:35.425Z,1716.00
2019-04-04T12:22:35.383Z,1744.00
2019-04-04T12:23:35.451Z,1776.00
2019-04-04T12:24:35.366Z,1792.00
2019-04-04T12:25:35.479Z,1824.00
2019-04-04T12:26:35.347Z,1812.00
2019-04-04T12:27:35.356Z,1836.00
2019-04-04T12:28:35.323Z,1888.00
2019-04-04T12:29:35.371Z,2032.00
2019-04-04T12:30:35.327Z,2128.00
2019-04-04T12:31:35.474Z,2160.00
2019-04-04T12:32:35.338Z,2268.00
2019-04-04T12:33:35.296Z,2412.00
2019-04-04T12:34:35.251Z,2516.00
2019-04-04T12:35:35.310Z,2480.00
2019-04-04T12:36:35.267Z,2468.00
2019-04-04T12:37:35.326Z,2532.00
2019-04-04T12:38:35.214Z,2516.00
2019-04-04T12:39:35.253Z,2556.00
2019-04-04T12:40:35.189Z,2712.00
2019-04-04T12:41:35.279Z,2884.00
2019-04-04T12:42:35.206Z,2852.00
2019-04-04T12:43:35.270Z,2792.00
2019-04-04T12:44:35.152Z,2740.00
2019-04-04T12:45:35.183Z,2708.00
2019-04-04T12:46:35.188Z,2620.00
2019-04-04T12:47:35.204Z,2448.00
2019-04-04T12:48:35.108Z,2216.00
2019-04-04T12:49:35.232Z,2032.00
2019-04-04T12:50:35.079Z,1932.00
2019-04-04T12:51:35.152Z,1912.00
2019-04-04T12:52:36.873Z,1912.00
2019-04-04T12:53:35.133Z,1988.00
2019-04-04T12:54:35.047Z,2120.00
2019-04-04T12:55:35.070Z,2280.00
2019-04-04T12:56:35.047Z,2400.00
2019-04-04T12:57:35.061Z,2440.00
2019-04-04T12:58:35.013Z,2384.00
2019-04-04T12:59:35.103Z,2192.00
2019-04-04T13:00:34.980Z,2004.00
2019-04-04T13:01:35.035Z,1920.00
2019-04-04T13:02:34.948Z,1784.00
2019-04-04T13:03:34.950Z,1712.00
2019-04-04T13:04:34.935Z,1640.00
2019-04-04T13:05:34.943Z,1432.00
2019-04-04T13:06:34.936Z,1264.00
2019-04-04T13:07:34.933Z,1236.00